Sylvan Lake, Canada
Current Conditions -  °F | °C
As of 6:00 PM on Sunday 21 Dec 2014 (Local Time) from CYQF Reporting Station
Overcast Overcast  
Wind Chill: 27°   Ceiling: 8000
Heat Index: 36°   Visibility: 15mi
Dew Point: 28°   Wind: 14mph
Humidity: 75%   Direction: 340°NNW
Pressure: 29.53"   Gusts: NA
Location:  52.31°N, 114.09°W
Report Text: CYQF 220100Z 34012KT 15SM OVC080 02/M02 A2953 RMK AC8 SLP042
Loading
Personal Weather Stations






























Interactive Weather Map New forecast layout! Learn more

10-Day Weather Forecast

Advertisements
Track Severe Weather on mobile